Portada
METAR-TAF:

METAR-TAF

Aeroports :

Yezd, Iran

latitud: 31-54N, longitud: 054-24E, altitud: 1238 m

Observació

L'informe es va fer fa 57 minuts, a les 13:00 UTC
Vent 8 kt del Nord-Oest
Temperatura 37°C
Humitat 13%
Pressió 1009 hPa
Visibilitat 10 km o més
Núvols disperses a una alçada de 4000 ft

METAR: OIYY 211300Z 31008KT 9999 SCT040 37/04 Q1009 NOSIG

Hora: 18:27 (13:57 UTC)

Pronòstic

L'informe es va fer fa 2 hores i 57 minuts, a les 11:00 UTC
Pronòstic vàlid del 21 a les 12 UTC al 21 a les 21 UTC
Vent 8 kt del Nord/Nord-Oest
Visibilitat: 8000 m
Escasses núvols a una alçada de 4000 ft
Núvols disperses a una alçada de 10000 ft
Temporalment
l' 21 a les 12 UTC al 21 a les 15 UTC
Vent 18 kt del Nord/Nord-Oest
Visibilitat: 3000 m
sorra
Evolucionant progressivament
l' 21 a les 18 UTC al 21 a les 20 UTC
Vent 10 kt del Est/Nord-Est
Núvols disperses a una alçada de 4000 ft

TAF: OIYY 211100Z 2112/2121 33008KT 8000 FEW040 SCT100 TEMPO 2112/2115 34018KT 3000 SA BECMG 2118/2120 06010KT SCT040

Observacions i pronòstics meteorològics de més de 4000 aeroports (METAR i TAF).

Les estacions disponibles són els punts grocs i vermells al mapa.

Posi el ratolí al punt desitjat per veure el nom de l'estació.

Feu clic per veure les observacions i els pronòstics meteorològics.

Per canviar el mapa: feu clic els botons verds amb una creu de color negre per apropar; al botó verd amb un guió per allunyar la imatge; o en les fletxes verdes per a mapes adjacents.


METAR-TAF: